Time;durP1;ratioP1;P1;durP2;ratioP2;P2;SDS_P1;SDS_P2;PMS_P1;PMS_P2;Temp;Humidity;BMP_temperature;BMP_pressure;BME280_temperature;BME280_humidity;BME280_pressure;Samples;Min_cycle;Max_cycle;Signal;HPM_P1;HPM_P2
2022/09/25 00:01:24;;;;;;;;;;;;;;;21.50;53.76;101218.91;7401829;19;1837;-41
2022/09/25 00:03:56;;;;;;;;;;;;;;;21.49;53.66;101217.19;7401880;19;1924;-42
2022/09/25 00:06:31;;;;;;;;;;;;;;;21.50;53.52;101224.31;7400813;19;1849;-41
2022/09/25 00:09:03;;;;;;;;;;;;;;;21.50;53.37;101230.53;7402157;19;1563;-40
2022/09/25 00:11:39;;;;;;;;;;;;;;;21.49;53.71;101222.59;7402487;19;1532;-41
2022/09/25 00:14:10;;;;;;;;;;;;;;;21.47;53.70;101220.06;7401855;19;1681;-42
2022/09/25 00:16:38;;;;;;;;;;;;;;;21.53;53.66;101237.50;7401054;19;1596;-41
2022/09/25 00:21:51;;;;;;;;;;;;;;;21.47;53.74;101224.56;7401633;19;1592;-41
2022/09/25 00:24:26;;;;;;;;;;;;;;;21.48;53.55;101220.91;7401845;19;1750;-41
2022/09/25 00:27:04;;;;;;;;;;;;;;;21.45;53.51;101216.66;7399864;19;1854;-41
2022/09/25 00:32:15;;;;;;;;;;;;;;;21.45;53.56;101206.75;7399384;19;2398;-42
2022/09/25 00:34:47;;;;;;;;;;;;;;;21.47;53.50;101203.03;7401870;19;1800;-41
2022/09/25 00:37:15;;;;;;;;;;;;;;;21.50;53.52;101213.53;7401134;19;1777;-41
2022/09/25 00:42:43;;;;;;;;;;;;;;;21.46;53.62;101204.88;7399354;19;2317;-43
2022/09/25 00:45:24;;;;;;;;;;;;;;;21.46;53.35;101199.50;7400376;19;1898;-42
2022/09/25 00:48:23;;;;;;;;;;;;;;;21.45;53.58;101195.97;7398883;19;1860;-41
2022/09/25 00:51:14;;;;;;;;;;;;;;;21.47;53.32;101197.66;7399207;19;1753;-41
2022/09/25 00:53:47;;;;;;;;;;;;;;;21.45;53.63;101198.66;7402011;19;1693;-41
2022/09/25 00:56:21;;;;;;;;;;;;;;;21.42;53.54;101190.81;7401553;19;1663;-41
2022/09/25 00:58:50;;;;;;;;;;;;;;;21.43;53.52;101192.56;7407946;19;2051;-41
2022/09/25 01:01:25;;;;;;;;;;;;;;;21.43;53.53;101200.66;7408095;19;1627;-43
2022/09/25 01:03:55;;;;;;;;;;;;;;;21.42;53.44;101188.13;7406734;19;1745;-41
2022/09/25 01:06:26;;;;;;;;;;;;;;;21.43;53.69;101197.97;7406593;19;1866;-41
2022/09/25 01:08:58;;;;;;;;;;;;;;;21.42;53.65;101204.28;7408638;19;1650;-41
2022/09/25 01:11:29;;;;;;;;;;;;;;;21.42;53.52;101196.22;7408218;19;1580;-41
2022/09/25 01:13:59;;;;;;;;;;;;;;;21.39;53.56;101184.91;7406817;19;1667;-41
2022/09/25 01:16:38;;;;;;;;;;;;;;;21.42;53.80;101185.44;7407939;19;1530;-41
2022/09/25 01:19:12;;;;;;;;;;;;;;;21.41;53.61;101185.63;7406836;19;1758;-41
2022/09/25 01:21:46;;;;;;;;;;;;;;;21.38;53.42;101189.41;7406900;19;1695;-42
2022/09/25 01:24:34;;;;;;;;;;;;;;;21.40;53.58;101191.97;7407902;19;1594;-41
2022/09/25 01:27:33;;;;;;;;;;;;;;;;;;;;;
2022/09/25 01:30:17;;;;;;;;;;;;;;;21.45;53.34;101192.44;7403049;19;1671;-41
2022/09/25 01:33:10;;;;;;;;;;;;;;;21.41;53.45;101183.75;7407762;19;1613;-41
2022/09/25 01:35:49;;;;;;;;;;;;;;;21.41;53.59;101174.84;7405568;19;1483;-41
2022/09/25 01:38:30;;;;;;;;;;;;;;;21.36;53.65;101174.41;7406542;19;1668;-42
2022/09/25 01:41:04;;;;;;;;;;;;;;;21.37;53.29;101181.50;7406167;19;1641;-41
2022/09/25 01:46:29;;;;;;;;;;;;;;;21.37;53.41;101168.06;7404168;19;1845;-42
2022/09/25 01:48:59;;;;;;;;;;;;;;;21.38;53.43;101181.34;7407824;19;1605;-41
2022/09/25 01:51:30;;;;;;;;;;;;;;;21.36;53.48;101172.56;7403955;19;2087;-41
2022/09/25 01:54:00;;;;;;;;;;;;;;;21.36;53.41;101183.31;7406267;19;1647;-41
2022/09/25 01:56:49;;;;;;;;;;;;;;;21.36;53.55;101175.25;7407359;19;1747;-41
2022/09/25 01:59:21;;;;;;;;;;;;;;;21.36;53.42;101169.88;7405275;19;2392;-41
2022/09/25 02:01:54;;;;;;;;;;;;;;;21.33;53.45;101178.25;7395284;19;3584;-64
2022/09/25 02:04:26;;;;;;;;;;;;;;;21.33;53.63;101172.88;7408796;19;1646;-64
2022/09/25 02:06:57;;;;;;;;;;;;;;;21.37;53.43;101193.13;7407201;19;1875;-65
2022/09/25 02:09:28;;;;;;;;;;;;;;;21.34;53.43;101179.09;7407171;19;1543;-64
2022/09/25 02:12:00;;;;;;;;;;;;;;;21.36;53.41;101202.16;7407330;19;1377;-64
2022/09/25 02:14:30;;;;;;;;;;;;;;;21.35;53.25;101180.81;7407931;19;1464;-64
2022/09/25 02:17:03;;;;;;;;;;;;;;;21.33;53.59;101185.44;7407871;19;1337;-64
2022/09/25 02:22:18;;;;;;;;;;;;;;;21.33;53.44;101180.06;7407881;19;1495;-65
2022/09/25 02:24:53;;;;;;;;;;;;;;;21.37;53.60;101181.50;7408023;19;1578;-64
2022/09/25 02:27:23;;;;;;;;;;;;;;;21.35;53.52;101176.25;7406176;19;1857;-64
2022/09/25 02:29:51;;;;;;;;;;;;;;;21.34;53.38;101176.41;7407835;19;1460;-64
2022/09/25 02:32:24;;;;;;;;;;;;;;;21.33;53.43;101172.88;7406697;19;1437;-65
2022/09/25 02:34:53;;;;;;;;;;;;;;;21.34;53.41;101177.25;7407850;19;1409;-65
2022/09/25 02:37:21;;;;;;;;;;;;;;;21.32;53.26;101179.22;7406680;19;1614;-65
2022/09/25 02:39:52;;;;;;;;;;;;;;;21.28;53.43;101177.81;7408208;19;1533;-64
2022/09/25 02:42:27;;;;;;;;;;;;;;;21.30;53.42;101170.44;7408174;19;1375;-64
2022/09/25 02:45:04;;;;;;;;;;;;;;;21.30;53.65;101170.44;7408880;19;1447;-64
2022/09/25 02:47:37;;;;;;;;;;;;;;;21.32;53.53;101187.28;7406695;19;1846;-64
2022/09/25 02:50:11;;;;;;;;;;;;;;;21.30;53.20;101191.13;7406353;19;1636;-65
2022/09/25 02:52:47;;;;;;;;;;;;;;;21.31;53.53;101157.84;7407595;19;1760;-64
2022/09/25 02:55:19;;;;;;;;;;;;;;;21.33;53.39;101162.09;7404769;19;1657;-64
2022/09/25 02:57:53;;;;;;;;;;;;;;;21.33;53.42;101159.41;7404250;19;1680;-64
2022/09/25 03:00:22;;;;;;;;;;;;;;;21.32;53.50;101162.25;7405461;19;1431;-64
2022/09/25 03:02:55;;;;;;;;;;;;;;;21.31;53.60;101168.59;7404883;19;1509;-62
2022/09/25 03:05:24;;;;;;;;;;;;;;;21.37;53.25;101176.13;7405662;19;1451;-64
2022/09/25 03:10:35;;;;;;;;;;;;;;;21.40;54.07;101192.81;7405957;19;1442;-65
2022/09/25 03:13:14;;;;;;;;;;;;;;;21.42;53.79;101190.00;7407626;19;1360;-63
2022/09/25 03:15:43;;;;;;;;;;;;;;;21.45;54.18;101187.91;7406457;19;1462;-63
2022/09/25 03:18:15;;;;;;;;;;;;;;;21.43;54.13;101183.66;7406687;19;1569;-67
2022/09/25 03:20:44;;;;;;;;;;;;;;;21.43;54.12;101187.19;7403847;19;1406;-58
2022/09/25 03:23:12;;;;;;;;;;;;;;;21.42;54.20;101182.75;7407704;19;1546;-59
2022/09/25 03:25:41;;;;;;;;;;;;;;;21.42;54.20;101185.44;7405900;19;1588;-58
2022/09/25 03:28:10;;;;;;;;;;;;;;;21.47;54.32;101187.78;7403368;19;1867;-58
2022/09/25 03:30:39;;;;;;;;;;;;;;;21.49;54.78;101187.59;7403248;19;1396;-58
2022/09/25 03:33:09;;;;;;;;;;;;;;;21.48;54.99;101184.06;7403833;19;1634;-58
2022/09/25 03:35:40;;;;;;;;;;;;;;;21.54;55.42;101185.34;7402947;19;1529;-63
2022/09/25 03:38:09;;;;;;;;;;;;;;;21.56;56.08;101196.81;7403502;19;1707;-65
2022/09/25 03:40:37;;;;;;;;;;;;;;;21.52;55.89;101190.88;7404431;19;1774;-65
2022/09/25 03:43:05;;;;;;;;;;;;;;;21.60;56.56;101209.84;7405612;19;1487;-70
2022/09/25 03:45:34;;;;;;;;;;;;;;;21.57;56.29;101185.09;7407361;19;1596;-67
2022/09/25 03:48:02;;;;;;;;;;;;;;;21.57;56.54;101199.38;7404884;19;1851;-67
2022/09/25 03:50:31;;;;;;;;;;;;;;;21.55;56.66;101193.28;7405241;19;1415;-75
2022/09/25 03:53:01;;;;;;;;;;;;;;;21.68;56.49;101205.59;7405246;19;1348;-68
2022/09/25 03:55:30;;;;;;;;;;;;;;;21.69;56.46;101200.09;7405504;19;1581;-67
2022/09/25 03:57:58;;;;;;;;;;;;;;;21.78;56.23;101212.66;7406060;19;1623;-75
2022/09/25 04:00:26;;;;;;;;;;;;;;;21.76;56.42;101221.88;7405327;19;1763;-64
2022/09/25 04:02:56;;;;;;;;;;;;;;;21.63;54.85;101195.28;7406988;19;988;-66
2022/09/25 04:05:24;;;;;;;;;;;;;;;21.59;54.20;101228.84;7406963;19;1031;-67
2022/09/25 04:07:53;;;;;;;;;;;;;;;21.51;55.68;101207.19;7404085;19;1844;-58
2022/09/25 04:10:24;;;;;;;;;;;;;;;21.50;56.20;101202.78;7404589;19;1396;-65
2022/09/25 04:12:54;;;;;;;;;;;;;;;21.48;55.98;101202.06;7402765;19;1596;-64
2022/09/25 04:15:23;;;;;;;;;;;;;;;21.48;55.95;101208.28;7401797;19;1501;-64
2022/09/25 04:17:52;;;;;;;;;;;;;;;21.47;55.55;101201.22;7397814;19;1631;-63
2022/09/25 04:20:20;;;;;;;;;;;;;;;21.50;55.81;101216.22;7400934;19;1326;-62
2022/09/25 04:22:48;;;;;;;;;;;;;;;21.52;55.86;101211.56;7402122;19;1522;-65
2022/09/25 04:25:20;;;;;;;;;;;;;;;21.54;55.61;101212.25;7398171;19;1520;-61
2022/09/25 04:27:51;;;;;;;;;;;;;;;21.52;55.67;101206.16;7400355;19;1857;-61
2022/09/25 04:30:19;;;;;;;;;;;;;;;21.52;55.93;101217.78;7402309;19;1463;-61
2022/09/25 04:35:28;;;;;;;;;;;;;;;21.62;55.36;101217.78;7403040;19;1399;-65
2022/09/25 04:37:56;;;;;;;;;;;;;;;21.65;55.25;101195.97;7401761;19;1543;-67
2022/09/25 04:40:25;;;;;;;;;;;;;;;21.71;55.20;101216.94;7402166;19;1358;-74
2022/09/25 04:42:59;;;;;;;;;;;;;;;21.71;55.48;101203.47;7401218;19;1362;-72
2022/09/25 04:45:28;;;;;;;;;;;;;;;21.71;55.42;101194.56;7401956;19;1561;-62
2022/09/25 04:47:57;;;;;;;;;;;;;;;21.66;55.35;101197.66;7398851;19;1865;-61
2022/09/25 04:50:25;;;;;;;;;;;;;;;21.64;55.42;101195.09;7399349;19;1558;-62
2022/09/25 04:52:58;;;;;;;;;;;;;;;21.66;55.25;101200.34;7397818;19;1292;-60
2022/09/25 04:55:27;;;;;;;;;;;;;;;21.66;55.11;101194.97;7398888;19;1516;-67
2022/09/25 04:57:56;;;;;;;;;;;;;;;21.68;55.43;101190.28;7399938;19;1503;-65
2022/09/25 05:00:28;;;;;;;;;;;;;;;21.72;55.34;101201.63;7400519;19;1505;-62
2022/09/25 05:02:57;;;;;;;;;;;;;;;21.69;55.27;101210.84;7400544;19;1661;-58
2022/09/25 05:05:26;;;;;;;;;;;;;;;21.62;55.29;101198.94;7400019;19;1415;-58
2022/09/25 05:07:54;;;;;;;;;;;;;;;21.55;55.57;101193.28;7399864;19;1852;-69
2022/09/25 05:10:26;;;;;;;;;;;;;;;21.58;55.75;101194.84;7400191;19;1412;-72
2022/09/25 05:12:57;;;;;;;;;;;;;;;21.61;55.43;101197.25;7400042;19;1388;-60
2022/09/25 05:15:28;;;;;;;;;;;;;;;21.62;55.45;101196.25;7400509;19;1326;-67
2022/09/25 05:18:03;;;;;;;;;;;;;;;21.67;55.35;101203.91;7400951;19;1271;-74
2022/09/25 05:20:32;;;;;;;;;;;;;;;21.72;55.57;101207.00;7400057;19;1582;-72
2022/09/25 05:23:00;;;;;;;;;;;;;;;21.72;55.16;101201.63;7401389;19;1276;-75
2022/09/25 05:25:29;;;;;;;;;;;;;;;21.71;55.48;101210.72;7401459;19;1594;-59
2022/09/25 05:27:59;;;;;;;;;;;;;;;21.72;55.77;101218.63;7400793;19;1857;-57
2022/09/25 05:30:31;;;;;;;;;;;;;;;21.77;55.38;101213.66;7398368;19;1576;-56
2022/09/25 05:32:59;;;;;;;;;;;;;;;21.84;55.13;101206.75;7400492;19;1604;-66
2022/09/25 05:35:29;;;;;;;;;;;;;;;21.91;55.20;101203.47;7400261;19;1565;-65
2022/09/25 05:37:57;;;;;;;;;;;;;;;21.87;55.46;101196.66;7400900;19;1533;-53
2022/09/25 05:40:26;;;;;;;;;;;;;;;21.93;55.26;101193.41;7400571;19;1712;-66
2022/09/25 05:42:55;;;;;;;;;;;;;;;21.97;55.03;101195.66;7399396;19;1470;-57
2022/09/25 05:45:24;;;;;;;;;;;;;;;22.05;55.03;101190.38;7406532;19;1431;-67
2022/09/25 05:48:04;;;;;;;;;;;;;;;22.08;54.80;101183.84;7405525;19;1851;-66
2022/09/25 05:50:33;;;;;;;;;;;;;;;22.13;55.04;101189.66;7406744;19;1376;-66
2022/09/25 05:53:02;;;;;;;;;;;;;;;22.17;55.31;101188.38;7404118;19;1569;-69
2022/09/25 05:55:31;;;;;;;;;;;;;;;22.16;55.19;101184.00;7404876;19;1224;-56
2022/09/25 05:58:03;;;;;;;;;;;;;;;22.19;55.43;101181.00;7407983;19;1228;-59
2022/09/25 06:00:31;;;;;;;;;;;;;;;22.21;55.01;101176.31;7405441;19;1708;-56
2022/09/25 06:02:59;;;;;;;;;;;;;;;22.20;56.01;101182.69;7407676;19;1279;-65
2022/09/25 06:05:31;;;;;;;;;;;;;;;22.23;55.54;101185.09;7408782;19;1538;-65
2022/09/25 06:07:59;;;;;;;;;;;;;;;22.23;55.72;101177.00;7408336;19;1857;-68
2022/09/25 06:10:28;;;;;;;;;;;;;;;22.24;55.37;101178.75;7408335;19;1443;-70
2022/09/25 06:12:58;;;;;;;;;;;;;;;22.24;55.24;101177.88;7405119;19;1470;-56
2022/09/25 06:15:26;;;;;;;;;;;;;;;22.23;55.72;101179.69;7405873;19;1685;-56
2022/09/25 06:17:55;;;;;;;;;;;;;;;22.20;55.62;101180.00;7408596;19;1431;-56
2022/09/25 06:20:23;;;;;;;;;;;;;;;22.19;55.76;101183.69;7408902;19;1613;-56
2022/09/25 06:22:58;;;;;;;;;;;;;;;22.19;55.50;101183.69;7408505;19;1428;-56
2022/09/25 06:25:27;;;;;;;;;;;;;;;22.21;56.01;101186.25;7408027;19;1724;-56
2022/09/25 06:27:56;;;;;;;;;;;;;;;22.22;55.76;101167.25;7406340;19;1862;-56
2022/09/25 06:30:26;;;;;;;;;;;;;;;22.23;55.85;101185.09;7407333;19;1505;-56
2022/09/25 06:32:58;;;;;;;;;;;;;;;22.28;55.58;101191.91;7408043;19;1538;-55
2022/09/25 06:35:28;;;;;;;;;;;;;;;22.24;55.68;101181.44;7407252;19;1856;-56
2022/09/25 06:38:01;;;;;;;;;;;;;;;22.25;55.54;101193.06;7406684;19;1521;-56
2022/09/25 06:40:31;;;;;;;;;;;;;;;22.24;55.71;101178.75;7406984;19;1734;-56
2022/09/25 06:42:59;;;;;;;;;;;;;;;22.25;55.50;101176.91;7406628;19;1529;-56
2022/09/25 06:45:28;;;;;;;;;;;;;;;22.28;55.72;101198.13;7406710;19;1523;-56
2022/09/25 06:48:01;;;;;;;;;;;;;;;22.30;55.63;101198.00;7407184;19;1855;-56
2022/09/25 06:50:31;;;;;;;;;;;;;;;22.22;55.56;101188.78;7407068;19;1723;-56
2022/09/25 06:53:02;;;;;;;;;;;;;;;22.28;55.59;101202.69;7406536;19;1517;-65
2022/09/25 06:55:33;;;;;;;;;;;;;;;22.23;55.65;101200.41;7406024;19;1608;-56
2022/09/25 06:58:02;;;;;;;;;;;;;;;22.21;55.74;101170.06;7407268;19;1458;-56
2022/09/25 07:00:30;;;;;;;;;;;;;;;22.28;55.58;101197.31;7405796;19;1688;-56
2022/09/25 07:05:41;;;;;;;;;;;;;;;22.34;55.40;101191.31;7408220;19;1335;-56
2022/09/25 07:08:12;;;;;;;;;;;;;;;22.34;55.53;101199.41;7407020;19;1851;-56
2022/09/25 07:10:41;;;;;;;;;;;;;;;22.42;55.66;101203.06;7408946;19;1677;-56
2022/09/25 07:13:09;;;;;;;;;;;;;;;22.40;55.51;101198.81;7406609;19;1251;-58
2022/09/25 07:15:38;;;;;;;;;;;;;;;22.44;56.22;101216.38;7402429;19;1444;-67
2022/09/25 07:18:06;;;;;;;;;;;;;;;22.41;56.30;101205.91;7402300;19;1585;-62
2022/09/25 07:20:35;;;;;;;;;;;;;;;22.42;56.22;101199.50;7405211;19;1758;-63
2022/09/25 07:23:04;;;;;;;;;;;;;;;22.39;56.07;101203.34;7406072;19;1561;-62
2022/09/25 07:25:35;;;;;;;;;;;;;;;22.44;56.63;101202.91;7407946;19;1537;-65
2022/09/25 07:28:03;;;;;;;;;;;;;;;22.52;56.40;101188.69;7401863;19;1860;-56
2022/09/25 07:30:31;;;;;;;;;;;;;;;22.53;56.38;101196.63;7405307;19;1502;-66
2022/09/25 07:33:00;;;;;;;;;;;;;;;22.49;56.78;101172.84;7404999;19;1296;-65
2022/09/25 07:35:28;;;;;;;;;;;;;;;22.46;56.48;101200.91;7406199;19;1540;-67
2022/09/25 07:37:57;;;;;;;;;;;;;;;22.44;56.36;101171.44;7405964;19;1540;-66
2022/09/25 07:40:27;;;;;;;;;;;;;;;22.48;56.50;101180.06;7405034;19;1727;-66
2022/09/25 07:43:02;;;;;;;;;;;;;;;22.47;56.70;101170.28;7402841;19;1640;-66
2022/09/25 07:45:30;;;;;;;;;;;;;;;22.46;56.55;101157.78;7404730;19;1620;-59
2022/09/25 07:47:59;;;;;;;;;;;;;;;22.50;56.43;101166.44;7405117;19;1816;-67
2022/09/25 07:50:28;;;;;;;;;;;;;;;22.53;56.67;101163.47;7399755;19;1608;-57
2022/09/25 07:52:56;;;;;;;;;;;;;;;22.53;56.43;101168.84;7403985;19;1423;-58
2022/09/25 07:55:27;;;;;;;;;;;;;;;22.62;57.30;101152.63;7396709;19;1633;-69
2022/09/25 07:57:57;;;;;;;;;;;;;;;22.67;57.22;101145.94;7400256;19;1573;-58
2022/09/25 08:00:28;;;;;;;;;;;;;;;22.64;57.41;101147.06;7399591;19;1620;-56
2022/09/25 08:02:57;;;;;;;;;;;;;;;22.60;57.71;101141.16;7402963;19;1550;-56
2022/09/25 08:05:25;;;;;;;;;;;;;;;22.56;57.72;101144.28;7403098;19;1487;-68
2022/09/25 08:07:54;;;;;;;;;;;;;;;22.54;57.62;101144.44;7403967;19;1863;-56
2022/09/25 08:10:23;;;;;;;;;;;;;;;22.49;58.06;101129.72;7405405;19;1518;-56
2022/09/25 08:12:51;;;;;;;;;;;;;;;22.57;57.80;101141.44;7404608;19;1454;-56
2022/09/25 08:15:19;;;;;;;;;;;;;;;22.59;57.72;101133.22;7402892;19;1431;-67
2022/09/25 08:17:50;;;;;;;;;;;;;;;22.54;57.76;101136.38;7397461;19;1402;-56
2022/09/25 08:20:19;;;;;;;;;;;;;;;22.62;57.79;101131.06;7403615;19;1521;-56
2022/09/25 08:22:47;;;;;;;;;;;;;;;22.59;57.27;101131.34;7402688;19;1479;-56
2022/09/25 08:25:16;;;;;;;;;;;;;;;22.58;57.07;101123.41;7403722;19;1529;-56
2022/09/25 08:27:44;;;;;;;;;;;;;;;22.60;57.04;101129.50;7402692;19;1462;-56
2022/09/25 08:30:16;;;;;;;;;;;;;;;22.58;57.05;101110.81;7397110;19;1845;-56
2022/09/25 08:32:45;;;;;;;;;;;;;;;22.56;57.27;101115.50;7397907;19;1233;-56
2022/09/25 08:35:15;;;;;;;;;;;;;;;22.54;57.38;101116.63;7396612;19;1668;-64
2022/09/25 08:37:45;;;;;;;;;;;;;;;22.34;57.63;101081.72;7388471;19;1535;-65
2022/09/25 08:40:26;;;;;;;;;;;;;;;22.78;57.04;101124.13;7395028;19;1581;-63
2022/09/25 08:42:55;;;;;;;;;;;;;;;22.81;57.52;101129.25;7400547;19;1709;-57
2022/09/25 08:51:02;;;;;;;;;;;;;;;22.81;58.09;101107.66;7406045;19;1271;-69
2022/09/25 08:53:30;;;;;;;;;;;;;;;22.78;58.26;101110.66;7406555;19;1549;-57
2022/09/25 08:58:42;;;;;;;;;;;;;;;22.84;58.38;101085.81;7404098;19;1822;-71
2022/09/25 09:01:12;;;;;;;;;;;;;;;22.78;58.76;101086.38;7401806;19;1667;-71
2022/09/25 09:03:45;;;;;;;;;;;;;;;22.71;58.78;101099.66;7403156;19;1463;-57
2022/09/25 09:06:17;;;;;;;;;;;;;;;22.71;58.34;101096.94;7400091;19;1427;-57
2022/09/25 09:08:49;;;;;;;;;;;;;;;22.74;58.41;101079.59;7400070;19;1852;-65
2022/09/25 09:11:20;;;;;;;;;;;;;;;22.66;58.69;101082.22;7397846;19;1712;-67
2022/09/25 09:13:52;;;;;;;;;;;;;;;22.66;58.80;101075.00;7397822;19;1534;-56
2022/09/25 09:16:24;;;;;;;;;;;;;;;22.63;58.37;101073.44;7401637;19;1573;-57
2022/09/25 09:18:53;;;;;;;;;;;;;;;22.61;59.68;101086.22;7407283;19;1483;-67
2022/09/25 09:21:30;;;;;;;;;;;;;;;22.66;58.99;101084.91;7406927;19;1715;-67
2022/09/25 09:24:02;;;;;;;;;;;;;;;22.76;58.63;101081.19;7407249;19;1476;-70
2022/09/25 09:26:35;;;;;;;;;;;;;;;22.72;59.33;101070.81;7408164;19;1562;-69
2022/09/25 09:29:15;;;;;;;;;;;;;;;22.76;59.43;101062.31;7403641;19;1861;-64
2022/09/25 09:31:48;;;;;;;;;;;;;;;22.72;59.20;101050.13;7406395;19;1545;-66
2022/09/25 09:34:38;;;;;;;;;;;;;;;22.80;59.38;101057.44;7407947;19;1518;-59
2022/09/25 09:37:14;;;;;;;;;;;;;;;22.86;60.16;101056.84;7408618;19;1525;-64
2022/09/25 09:39:47;;;;;;;;;;;;;;;22.78;59.77;101040.56;7410392;19;1487;-66
2022/09/25 09:42:20;;;;;;;;;;;;;;;22.76;60.04;101037.16;7407979;19;1505;-60
2022/09/25 09:44:57;;;;;;;;;;;;;;;22.81;60.01;101049.19;7409150;19;1486;-71
2022/09/25 09:47:38;;;;;;;;;;;;;;;22.86;60.31;101040.66;7408301;19;1531;-64
2022/09/25 09:50:17;;;;;;;;;;;;;;;22.93;60.10;101046.28;7402170;19;1853;-58
2022/09/25 09:52:50;;;;;;;;;;;;;;;22.86;59.34;101043.34;7401564;19;1609;-66
2022/09/25 09:55:22;;;;;;;;;;;;;;;22.87;59.88;101047.72;7405356;19;1411;-56
2022/09/25 09:57:53;;;;;;;;;;;;;;;22.91;59.25;101042.88;7409569;19;1565;-66
2022/09/25 10:00:22;;;;;;;;;;;;;;;22.73;59.68;101035.63;7410448;19;1418;-66
2022/09/25 10:02:54;;;;;;;;;;;;;;;22.69;59.54;101034.25;7410898;19;1589;-67
2022/09/25 10:05:26;;;;;;;;;;;;;;;22.73;59.13;101034.78;7409794;19;1898;-65
2022/09/25 10:07:56;;;;;;;;;;;;;;;22.68;58.93;101019.09;7407526;19;1540;-55
2022/09/25 10:10:30;;;;;;;;;;;;;;;22.73;59.30;101024.00;7406530;19;1857;-59
2022/09/25 10:13:04;;;;;;;;;;;;;;;22.76;58.89;101010.22;7408086;19;1431;-66
2022/09/25 10:15:35;;;;;;;;;;;;;;;22.78;58.58;101014.47;7407351;19;1307;-61
2022/09/25 10:18:05;;;;;;;;;;;;;;;22.73;58.82;101005.13;7406736;19;1185;-60
2022/09/25 10:20:37;;;;;;;;;;;;;;;22.75;58.57;101000.44;7403233;19;1565;-57
2022/09/25 10:23:12;;;;;;;;;;;;;;;22.78;58.39;101005.50;7405261;19;1628;-61
2022/09/25 10:25:42;;;;;;;;;;;;;;;22.75;58.54;101003.13;7405302;19;1633;-60
2022/09/25 10:28:31;;;;;;;;;;;;;;;22.73;58.31;100992.50;7407954;19;1470;-57
2022/09/25 10:31:00;;;;;;;;;;;;;;;22.74;58.10;100983.44;7400622;19;1850;-57
2022/09/25 10:33:29;;;;;;;;;;;;;;;22.76;57.86;100986.81;7403878;19;1407;-57
2022/09/25 10:35:58;;;;;;;;;;;;;;;22.71;57.76;100978.31;7404436;19;1629;-56
2022/09/25 10:38:35;;;;;;;;;;;;;;;22.71;57.68;100989.13;7405569;19;1521;-56
2022/09/25 10:41:04;;;;;;;;;;;;;;;22.70;57.87;100986.56;7408313;19;1746;-57
2022/09/25 10:43:32;;;;;;;;;;;;;;;22.71;57.58;100989.13;7407411;19;1407;-57
2022/09/25 10:46:14;;;;;;;;;;;;;;;22.65;57.63;100968.16;7407124;19;1671;-57
2022/09/25 10:51:24;;;;;;;;;;;;;;;22.60;58.11;100973.16;7407626;19;1315;-56
2022/09/25 10:54:11;;;;;;;;;;;;;;;22.56;57.85;100969.97;7405935;19;1295;-56
2022/09/25 10:56:40;;;;;;;;;;;;;;;22.58;57.79;100959.88;7406922;19;1457;-56
2022/09/25 10:59:13;;;;;;;;;;;;;;;22.59;57.77;100969.63;7407151;19;1307;-56
2022/09/25 11:01:44;;;;;;;;;;;;;;;22.56;58.20;100969.97;7404940;19;1439;-56
2022/09/25 11:04:15;;;;;;;;;;;;;;;22.56;57.94;100961.88;7406750;19;1498;-56
2022/09/25 11:06:46;;;;;;;;;;;;;;;22.56;58.10;100959.16;7404960;19;1608;-56
2022/09/25 11:09:18;;;;;;;;;;;;;;;22.52;57.78;100955.09;7407297;19;1853;-56
2022/09/25 11:11:48;;;;;;;;;;;;;;;22.53;57.90;100956.78;7405534;19;1902;-54
2022/09/25 11:14:22;;;;;;;;;;;;;;;22.56;57.70;100958.31;7406271;19;1434;-56
2022/09/25 11:16:53;;;;;;;;;;;;;;;22.54;57.33;100952.22;7406840;19;1452;-56
2022/09/25 11:19:25;;;;;;;;;;;;;;;22.62;57.21;100953.16;7405104;19;1373;-63
2022/09/25 11:21:58;;;;;;;;;;;;;;;22.62;57.14;100955.84;7406327;19;1517;-61
2022/09/25 11:24:36;;;;;;;;;;;;;;;22.63;57.14;100940.53;7407726;19;1696;-61
2022/09/25 11:27:09;;;;;;;;;;;;;;;22.62;57.40;100941.50;7407048;19;1680;-58
2022/09/25 11:29:44;;;;;;;;;;;;;;;22.62;57.03;100930.72;7406091;19;1850;-58
2022/09/25 11:32:18;;;;;;;;;;;;;;;22.65;57.05;100930.44;7406393;19;1691;-59
2022/09/25 11:35:10;;;;;;;;;;;;;;;22.65;56.94;100933.13;7405658;19;1766;-61
2022/09/25 11:37:42;;;;;;;;;;;;;;;22.63;57.13;100925.19;7400070;19;1934;-63
2022/09/25 11:43:06;;;;;;;;;;;;;;;22.66;56.88;100915.97;7403527;19;1584;-56
2022/09/25 11:45:38;;;;;;;;;;;;;;;22.63;56.46;100922.50;7404840;19;1447;-61
2022/09/25 11:48:08;;;;;;;;;;;;;;;22.67;56.26;100919.50;7405400;19;1447;-56
2022/09/25 11:50:43;;;;;;;;;;;;;;;22.59;56.57;100915.72;7405590;19;1856;-55
2022/09/25 11:53:16;;;;;;;;;;;;;;;22.56;56.54;100921.44;7407626;19;1443;-55
2022/09/25 11:56:09;;;;;;;;;;;;;;;22.51;56.50;100906.72;7403446;19;1640;-55
2022/09/25 11:58:53;;;;;;;;;;;;;;;22.52;56.77;100916.50;7401460;19;2900;-57
2022/09/25 12:01:27;;;;;;;;;;;;;;;22.50;56.61;100897.81;7401214;19;1370;-55
2022/09/25 12:04:02;;;;;;;;;;;;;;;22.47;56.55;100905.34;7402403;19;1699;-56
2022/09/25 12:06:41;;;;;;;;;;;;;;;22.50;56.68;100918.50;7404865;19;1585;-55
2022/09/25 12:09:19;;;;;;;;;;;;;;;22.47;56.74;100895.41;7402422;19;1849;-55
2022/09/25 12:11:59;;;;;;;;;;;;;;;22.56;56.24;100894.50;7404665;19;1679;-56
2022/09/25 12:14:35;;;;;;;;;;;;;;;22.60;55.96;100885.09;7403636;19;1865;-55
2022/09/25 12:17:07;;;;;;;;;;;;;;;22.54;56.31;100885.72;7402795;19;1493;-56
2022/09/25 12:19:42;;;;;;;;;;;;;;;22.57;56.36;100884.53;7406666;19;1555;-56
2022/09/25 12:22:15;;;;;;;;;;;;;;;22.54;56.34;100891.09;7405339;19;1584;-56
2022/09/25 12:24:53;;;;;;;;;;;;;;;22.60;56.16;100901.25;7402925;19;1557;-59
2022/09/25 12:27:28;;;;;;;;;;;;;;;22.58;56.35;100886.22;7405544;19;1496;-60
2022/09/25 12:30:14;;;;;;;;;;;;;;;22.63;56.22;100890.16;7404839;19;1856;-60
2022/09/25 12:32:56;;;;;;;;;;;;;;;22.63;56.18;100884.75;7400775;19;1410;-71
2022/09/25 12:35:34;;;;;;;;;;;;;;;22.60;56.31;100881.53;7403233;19;1683;-71
2022/09/25 12:38:05;;;;;;;;;;;;;;;22.63;56.13;100895.53;7403266;19;1505;-59
2022/09/25 12:40:36;;;;;;;;;;;;;;;22.61;56.23;100875.97;7402671;19;1271;-59
2022/09/25 12:43:06;;;;;;;;;;;;;;;22.59;56.52;100878.00;7403517;19;1251;-70
2022/09/25 12:45:40;;;;;;;;;;;;;;;22.64;56.65;100891.84;7403951;19;1248;-69
2022/09/25 12:48:13;;;;;;;;;;;;;;;22.61;56.37;100877.84;7403692;19;1320;-69
2022/09/25 12:50:45;;;;;;;;;;;;;;;22.60;56.65;100871.59;7402651;19;1857;-70
2022/09/25 12:53:22;;;;;;;;;;;;;;;22.60;56.81;100874.31;7403282;19;1343;-71
2022/09/25 12:55:55;;;;;;;;;;;;;;;22.58;56.88;100865.53;7404727;19;1425;-60
2022/09/25 12:58:27;;;;;;;;;;;;;;;22.58;56.64;100849.34;7403377;19;1326;-69
2022/09/25 13:00:59;;;;;;;;;;;;;;;22.61;56.89;100865.19;7401720;19;1500;-61
2022/09/25 13:03:34;;;;;;;;;;;;;;;22.59;56.71;100860.97;7402498;19;1877;-60
2022/09/25 13:06:07;;;;;;;;;;;;;;;22.57;57.00;100841.41;7402819;19;1343;-59
2022/09/25 13:08:40;;;;;;;;;;;;;;;22.57;56.98;100847.66;7403346;19;1347;-60
2022/09/25 13:11:12;;;;;;;;;;;;;;;22.62;57.00;100845.34;7397486;19;1865;-57
2022/09/25 13:13:44;;;;;;;;;;;;;;;22.70;56.85;100841.88;7400460;19;1390;-62
2022/09/25 13:16:16;;;;;;;;;;;;;;;22.67;57.04;100847.56;7401584;19;1467;-63
2022/09/25 13:18:49;;;;;;;;;;;;;;;22.69;57.16;100853.63;7404207;19;1548;-75
2022/09/25 13:21:25;;;;;;;;;;;;;;;22.68;57.89;100848.41;7403613;19;1612;-73
2022/09/25 13:23:54;;;;;;;;;;;;;;;22.68;57.61;100827.69;7404220;19;1541;-68
2022/09/25 13:26:25;;;;;;;;;;;;;;;22.67;57.67;100833.25;7402794;19;1658;-71
2022/09/25 13:28:56;;;;;;;;;;;;;;;22.71;57.96;100838.16;7399773;19;1498;-72
2022/09/25 13:31:29;;;;;;;;;;;;;;;22.74;58.23;100831.59;7398942;19;1855;-70
2022/09/25 13:33:59;;;;;;;;;;;;;;;22.73;58.03;100824.53;7402785;19;1309;-69
2022/09/25 13:36:35;;;;;;;;;;;;;;;22.72;58.62;100830.91;7401978;19;1368;-70
2022/09/25 13:41:52;;;;;;;;;;;;;;;22.64;58.39;100815.50;7402506;19;1317;-70
2022/09/25 13:44:38;;;;;;;;;;;;;;;22.61;58.43;100823.94;7401363;19;1322;-70
2022/09/25 13:47:21;;;;;;;;;;;;;;;22.62;58.58;100815.69;7400070;19;1546;-68
2022/09/25 13:49:53;;;;;;;;;;;;;;;22.63;58.56;100825.47;7403381;19;1898;-72
2022/09/25 13:52:30;;;;;;;;;;;;;;;22.67;58.56;100831.38;7403322;19;1732;-67